createdAt,value
2023-05-16T00:00:06.027Z,91.29
2023-05-16T00:01:06.015Z,91.45
2023-05-16T00:02:06.129Z,91.35
2023-05-16T00:03:06.046Z,91.14
2023-05-16T00:04:06.144Z,91.05
2023-05-16T00:05:05.952Z,90.94
2023-05-16T00:06:05.960Z,90.33
2023-05-16T00:07:05.921Z,90.13
2023-05-16T00:08:05.929Z,89.72
2023-05-16T00:09:05.895Z,89.22
2023-05-16T00:10:05.881Z,89.11
2023-05-16T00:11:05.868Z,88.81
2023-05-16T00:12:05.849Z,88.91
2023-05-16T00:13:05.861Z,88.81
2023-05-16T00:14:05.842Z,88.81
2023-05-16T00:15:05.834Z,88.81
2023-05-16T00:16:05.800Z,88.60
2023-05-16T00:17:05.875Z,88.60
2023-05-16T00:18:05.858Z,88.50
2023-05-16T00:19:05.834Z,88.46
2023-05-16T00:20:05.751Z,88.30
2023-05-16T00:21:05.742Z,88.20
2023-05-16T00:22:05.744Z,88.10
2023-05-16T00:23:05.739Z,88.30
2023-05-16T00:24:05.701Z,88.30
2023-05-16T00:25:05.679Z,88.30
2023-05-16T00:26:05.662Z,88.30
2023-05-16T00:27:05.671Z,88.50
2023-05-16T00:28:05.646Z,88.50
2023-05-16T00:29:05.619Z,88.40
2023-05-16T00:30:05.606Z,88.50
2023-05-16T00:31:05.614Z,88.50
2023-05-16T00:32:05.656Z,88.71
2023-05-16T00:33:05.614Z,88.71
2023-05-16T00:34:05.617Z,88.60
2023-05-16T00:35:05.548Z,88.60
2023-05-16T00:36:05.528Z,88.50
2023-05-16T00:37:05.540Z,88.81
2023-05-16T00:38:05.514Z,88.95
2023-05-16T00:39:05.487Z,88.85
2023-05-16T00:40:05.473Z,88.95
2023-05-16T00:41:05.472Z,88.95
2023-05-16T00:42:05.461Z,89.05
2023-05-16T00:43:05.432Z,89.15
2023-05-16T00:44:05.425Z,89.15
2023-05-16T00:45:05.401Z,89.26
2023-05-16T00:46:05.477Z,89.15
2023-05-16T00:47:05.404Z,89.15
2023-05-16T00:48:05.397Z,89.26
2023-05-16T00:49:05.346Z,89.26
2023-05-16T00:50:05.335Z,89.26
2023-05-16T00:51:05.346Z,89.15
2023-05-16T00:52:05.311Z,89.05
2023-05-16T00:53:05.300Z,89.05
2023-05-16T00:54:05.280Z,89.05
2023-05-16T00:55:05.266Z,89.05
2023-05-16T00:56:05.274Z,89.05
2023-05-16T00:57:05.241Z,88.95
2023-05-16T00:58:05.238Z,88.95
2023-05-16T00:59:05.209Z,88.75
2023-05-16T01:00:05.214Z,88.65
2023-05-16T01:01:05.343Z,88.65
2023-05-16T01:02:05.185Z,88.65
2023-05-16T01:03:05.294Z,88.75
2023-05-16T01:04:05.453Z,88.85
2023-05-16T01:05:05.242Z,89.05
2023-05-16T01:06:05.112Z,89.05
2023-05-16T01:07:05.100Z,89.26
2023-05-16T01:08:05.089Z,89.26
2023-05-16T01:09:05.080Z,89.36
2023-05-16T01:10:05.198Z,89.36
2023-05-16T01:11:05.042Z,89.36
2023-05-16T01:12:05.038Z,89.26
2023-05-16T01:13:05.019Z,89.36
2023-05-16T01:14:05.006Z,89.36
2023-05-16T01:15:05.061Z,89.50
2023-05-16T01:16:05.025Z,89.50
2023-05-16T01:17:04.986Z,89.61
2023-05-16T01:18:05.022Z,89.70
2023-05-16T01:19:05.030Z,89.81
2023-05-16T01:20:04.975Z,89.81
2023-05-16T01:21:04.908Z,90.01
2023-05-16T01:22:04.913Z,90.01
2023-05-16T01:23:04.891Z,90.11
2023-05-16T01:24:04.903Z,90.25
2023-05-16T01:25:04.861Z,90.25
2023-05-16T01:26:04.844Z,90.46
2023-05-16T01:27:04.825Z,90.46
2023-05-16T01:28:04.810Z,90.56
2023-05-16T01:29:04.810Z,90.66
2023-05-16T01:30:04.783Z,90.77
2023-05-16T01:31:04.826Z,90.97
2023-05-16T01:32:04.868Z,91.22
2023-05-16T01:33:04.782Z,91.52
2023-05-16T01:34:04.794Z,91.72
2023-05-16T01:35:04.735Z,91.72
2023-05-16T01:36:04.724Z,91.72
2023-05-16T01:37:04.684Z,91.87
2023-05-16T01:38:04.688Z,91.77
2023-05-16T01:39:04.657Z,91.87
2023-05-16T01:40:04.647Z,92.07
2023-05-16T01:41:04.629Z,92.07
2023-05-16T01:42:04.652Z,92.27
2023-05-16T01:43:04.641Z,92.27
2023-05-16T01:44:04.606Z,92.27
2023-05-16T01:45:04.579Z,92.38
2023-05-16T01:46:04.574Z,92.48
2023-05-16T01:47:04.742Z,92.58
2023-05-16T01:48:04.663Z,92.68
2023-05-16T01:49:04.525Z,92.83
2023-05-16T01:50:04.515Z,93.03
2023-05-16T01:51:04.530Z,93.13
2023-05-16T01:52:04.504Z,93.24
2023-05-16T01:53:04.487Z,93.24
2023-05-16T01:54:04.462Z,93.33
2023-05-16T01:55:04.462Z,93.59
2023-05-16T01:56:04.442Z,93.69
2023-05-16T01:57:04.454Z,93.79
2023-05-16T01:58:04.408Z,93.89
2023-05-16T01:59:04.396Z,93.99
2023-05-16T02:00:04.482Z,93.99
2023-05-16T02:01:04.402Z,93.99
2023-05-16T02:02:04.389Z,93.89
2023-05-16T02:03:04.415Z,93.89
2023-05-16T02:04:04.377Z,93.79
2023-05-16T02:05:04.321Z,93.79
2023-05-16T02:06:04.321Z,93.79
2023-05-16T02:07:04.339Z,93.99
2023-05-16T02:08:04.295Z,93.85
2023-05-16T02:09:04.276Z,93.85
2023-05-16T02:10:04.260Z,93.95
2023-05-16T02:11:04.253Z,94.05
2023-05-16T02:12:04.239Z,94.09
2023-05-16T02:13:04.231Z,93.99
2023-05-16T02:14:04.203Z,94.20
2023-05-16T02:15:04.186Z,94.09
2023-05-16T02:16:04.220Z,93.95
2023-05-16T02:17:04.267Z,93.85
2023-05-16T02:18:04.207Z,93.99
2023-05-16T02:19:04.241Z,93.99
2023-05-16T02:20:04.144Z,93.89
2023-05-16T02:21:04.120Z,94.09
2023-05-16T02:22:04.095Z,94.20
2023-05-16T02:23:04.165Z,94.50
2023-05-16T02:24:04.069Z,95.06
2023-05-16T02:25:04.077Z,95.47
2023-05-16T02:26:04.049Z,96.02
2023-05-16T02:27:04.029Z,96.33
2023-05-16T02:28:04.015Z,96.88
2023-05-16T02:29:04.000Z,97.49
2023-05-16T02:30:04.007Z,98.15
2023-05-16T02:31:04.017Z,98.56
2023-05-16T02:32:03.964Z,98.86
2023-05-16T02:33:03.978Z,98.97
2023-05-16T02:34:03.953Z,98.86
2023-05-16T02:35:03.951Z,98.86
2023-05-16T02:36:03.970Z,98.77
2023-05-16T02:37:03.942Z,98.86
2023-05-16T02:38:03.899Z,98.77
2023-05-16T02:39:03.960Z,98.56
2023-05-16T02:40:03.993Z,98.36
2023-05-16T02:41:03.845Z,98.25
2023-05-16T02:42:03.829Z,98.25
2023-05-16T02:43:03.817Z,98.15
2023-05-16T02:44:03.872Z,98.15
2023-05-16T02:45:03.793Z,98.36
2023-05-16T02:46:03.806Z,98.36
2023-05-16T02:47:03.766Z,98.56
2023-05-16T02:48:03.827Z,98.66
2023-05-16T02:49:03.774Z,98.46
2023-05-16T02:50:03.742Z,98.56
2023-05-16T02:51:03.709Z,98.46
2023-05-16T02:52:03.700Z,98.46
2023-05-16T02:53:03.684Z,98.46
2023-05-16T02:54:03.694Z,98.46
2023-05-16T02:55:16.814Z,98.56
2023-05-16T02:56:04.650Z,98.56
2023-05-16T02:57:03.627Z,98.56
2023-05-16T02:58:03.631Z,98.61
2023-05-16T02:59:03.618Z,98.81
2023-05-16T03:00:03.592Z,98.81
2023-05-16T03:01:03.574Z,98.66
2023-05-16T03:02:03.639Z,98.71
2023-05-16T03:03:03.659Z,98.71
2023-05-16T03:04:03.732Z,98.86
2023-05-16T03:05:03.523Z,99.18
2023-05-16T03:06:03.536Z,99.22
2023-05-16T03:07:03.504Z,99.22
2023-05-16T03:08:03.512Z,99.43
2023-05-16T03:09:03.469Z,99.52
2023-05-16T03:10:03.458Z,99.43
2023-05-16T03:11:03.476Z,99.27
2023-05-16T03:12:03.449Z,99.18
2023-05-16T03:13:03.435Z,99.11
2023-05-16T03:14:03.410Z,99.22
2023-05-16T03:15:03.401Z,99.18
2023-05-16T03:16:03.468Z,99.11
2023-05-16T03:17:03.413Z,99.07
2023-05-16T03:18:03.394Z,99.18
2023-05-16T03:19:03.405Z,99.07
2023-05-16T03:20:03.324Z,99.11
2023-05-16T03:21:03.307Z,98.97
2023-05-16T03:22:03.312Z,98.81
2023-05-16T03:23:03.283Z,99.11
2023-05-16T03:24:03.334Z,99.02
2023-05-16T03:25:03.267Z,98.91
2023-05-16T03:26:03.267Z,98.91
2023-05-16T03:27:03.274Z,98.91
2023-05-16T03:28:03.224Z,98.91
2023-05-16T03:29:03.222Z,98.81
2023-05-16T03:30:03.195Z,98.71
2023-05-16T03:31:03.198Z,98.71
2023-05-16T03:32:03.264Z,98.71
2023-05-16T03:33:03.227Z,99.11
2023-05-16T03:34:03.135Z,99.27
2023-05-16T03:35:03.124Z,99.16
2023-05-16T03:36:03.195Z,99.06
2023-05-16T03:37:03.098Z,99.06
2023-05-16T03:38:03.098Z,99.27
2023-05-16T03:39:03.069Z,99.68
2023-05-16T03:40:03.072Z,99.57
2023-05-16T03:41:03.072Z,99.63
2023-05-16T03:42:03.035Z,99.57
2023-05-16T03:43:03.037Z,99.73
2023-05-16T03:44:03.012Z,99.84
2023-05-16T03:45:03.005Z,99.84
2023-05-16T03:46:02.976Z,99.99
2023-05-16T03:47:02.964Z,99.99
2023-05-16T03:48:03.005Z,99.99
2023-05-16T03:49:02.940Z,99.89
2023-05-16T03:50:02.945Z,99.79
2023-05-16T03:51:02.929Z,99.68
2023-05-16T03:52:02.910Z,99.48
2023-05-16T03:53:02.892Z,99.27
2023-05-16T03:54:02.908Z,99.18
2023-05-16T03:55:02.875Z,99.18
2023-05-16T03:56:02.851Z,99.38
2023-05-16T03:57:02.835Z,99.43
2023-05-16T03:58:02.819Z,99.73
2023-05-16T03:59:02.838Z,99.73
2023-05-16T04:00:02.809Z,99.93
2023-05-16T04:01:02.777Z,99.99
2023-05-16T04:02:02.815Z,99.99
2023-05-16T04:03:02.809Z,99.99
2023-05-16T04:04:02.757Z,99.99
2023-05-16T04:05:02.725Z,99.93
2023-05-16T04:06:02.749Z,99.84
2023-05-16T04:07:02.720Z,99.63
2023-05-16T04:08:02.716Z,99.52
2023-05-16T04:09:02.691Z,99.48
2023-05-16T04:10:02.677Z,99.27
2023-05-16T04:11:02.643Z,99.27
2023-05-16T04:12:02.633Z,99.18
2023-05-16T04:13:02.630Z,99.18
2023-05-16T04:14:02.695Z,99.27
2023-05-16T04:15:02.619Z,99.18
2023-05-16T04:16:02.582Z,99.02
2023-05-16T04:17:02.648Z,99.02
2023-05-16T04:18:02.581Z,98.93
2023-05-16T04:19:02.578Z,98.82
2023-05-16T04:20:02.526Z,98.72
2023-05-16T04:21:02.512Z,98.68
2023-05-16T04:22:02.498Z,98.72
2023-05-16T04:23:02.498Z,98.57
2023-05-16T04:24:02.471Z,98.47
2023-05-16T04:25:02.479Z,98.36
2023-05-16T04:26:02.449Z,98.27
2023-05-16T04:27:02.452Z,98.27
2023-05-16T04:28:02.446Z,98.02
2023-05-16T04:29:02.424Z,98.02
2023-05-16T04:30:02.403Z,98.02
2023-05-16T04:31:02.441Z,97.91
2023-05-16T04:32:02.491Z,97.61
2023-05-16T04:33:02.391Z,97.56
2023-05-16T04:34:02.351Z,97.50
2023-05-16T04:35:02.328Z,97.25
2023-05-16T04:36:02.321Z,97.36
2023-05-16T04:37:02.326Z,97.36
2023-05-16T04:38:02.309Z,97.25
2023-05-16T04:39:02.284Z,97.05
2023-05-16T04:40:02.325Z,96.64
2023-05-16T04:41:02.249Z,96.54
2023-05-16T04:42:02.254Z,96.84
2023-05-16T04:43:02.221Z,96.75
2023-05-16T04:44:02.223Z,96.84
2023-05-16T04:45:02.198Z,96.84
2023-05-16T04:46:02.232Z,96.84
2023-05-16T04:47:02.233Z,96.80
2023-05-16T04:48:02.253Z,96.60
2023-05-16T04:49:02.144Z,96.39
2023-05-16T04:50:02.158Z,96.19
2023-05-16T04:51:02.144Z,95.78
2023-05-16T04:52:02.109Z,95.58
2023-05-16T04:53:02.094Z,95.68
2023-05-16T04:54:02.082Z,95.43
2023-05-16T04:55:02.099Z,95.03
2023-05-16T04:56:02.199Z,95.28
2023-05-16T04:57:02.046Z,95.23
2023-05-16T04:58:02.047Z,95.13
2023-05-16T04:59:02.021Z,95.13
2023-05-16T05:00:02.036Z,94.72
2023-05-16T05:01:02.044Z,94.56
2023-05-16T05:02:02.025Z,94.97
2023-05-16T05:03:02.069Z,95.89
2023-05-16T05:04:01.961Z,95.48
2023-05-16T05:05:02.024Z,95.48
2023-05-16T05:06:01.941Z,95.28
2023-05-16T05:07:01.936Z,95.37
2023-05-16T05:08:01.917Z,95.73
2023-05-16T05:09:01.888Z,96.03
2023-05-16T05:10:01.886Z,96.14
2023-05-16T05:11:01.865Z,96.34
2023-05-16T05:12:01.843Z,96.23
2023-05-16T05:13:01.837Z,96.03
2023-05-16T05:14:01.825Z,95.89
2023-05-16T05:15:01.832Z,95.58
2023-05-16T05:16:01.791Z,95.68
2023-05-16T05:17:01.807Z,95.53
2023-05-16T05:18:02.020Z,95.23
2023-05-16T05:19:01.902Z,95.23
2023-05-16T05:20:03.143Z,95.18
2023-05-16T05:21:01.729Z,95.29
2023-05-16T05:22:01.713Z,95.24
2023-05-16T05:23:01.773Z,94.93
2023-05-16T05:24:01.700Z,94.53
2023-05-16T05:25:01.680Z,94.18
2023-05-16T05:26:01.667Z,93.77
2023-05-16T05:27:01.643Z,93.67
2023-05-16T05:28:01.639Z,93.57
2023-05-16T05:29:05.648Z,93.47
2023-05-16T05:30:01.622Z,93.37
2023-05-16T05:31:01.608Z,93.26
2023-05-16T05:32:01.738Z,92.71
2023-05-16T05:33:01.722Z,92.82
2023-05-16T05:34:01.585Z,92.51
2023-05-16T05:35:01.610Z,92.61
2023-05-16T05:36:03.880Z,92.30
2023-05-16T05:37:01.508Z,92.10
2023-05-16T05:38:01.504Z,91.69
2023-05-16T05:39:01.478Z,91.69
2023-05-16T05:40:01.479Z,91.90
2023-05-16T05:41:01.463Z,91.90
2023-05-16T05:42:01.492Z,91.69
2023-05-16T05:43:01.438Z,91.39
2023-05-16T05:44:01.407Z,91.39
2023-05-16T05:45:01.398Z,91.29
2023-05-16T05:46:01.491Z,91.69
2023-05-16T05:47:01.417Z,91.65
2023-05-16T05:48:01.443Z,91.60
2023-05-16T05:49:01.348Z,91.29
2023-05-16T05:50:01.329Z,91.39
2023-05-16T05:51:01.504Z,91.49
2023-05-16T05:52:01.358Z,91.80
2023-05-16T05:53:01.288Z,91.80
2023-05-16T05:54:01.283Z,92.00
2023-05-16T05:55:01.259Z,92.21
2023-05-16T05:56:01.251Z,92.10
2023-05-16T05:57:01.276Z,92.14
2023-05-16T05:58:01.217Z,92.14
2023-05-16T05:59:01.203Z,92.55
2023-05-16T06:00:01.244Z,92.55
2023-05-16T06:01:01.221Z,92.45
2023-05-16T06:02:01.207Z,92.76
2023-05-16T06:03:01.170Z,92.76
2023-05-16T06:04:02.193Z,92.70
2023-05-16T06:05:01.243Z,93.01
2023-05-16T06:06:01.196Z,93.10
2023-05-16T06:07:01.138Z,93.21
2023-05-16T06:08:01.099Z,93.51
2023-05-16T06:09:01.070Z,93.62
2023-05-16T06:10:02.027Z,93.76
2023-05-16T06:11:01.085Z,93.76
2023-05-16T06:12:01.049Z,93.96
2023-05-16T06:13:01.020Z,94.27
2023-05-16T06:14:01.005Z,94.37
2023-05-16T06:15:00.990Z,94.37
2023-05-16T06:16:00.987Z,94.57
2023-05-16T06:17:00.977Z,94.47
2023-05-16T06:18:01.003Z,94.57
2023-05-16T06:19:01.024Z,94.47
2023-05-16T06:20:00.922Z,94.72
2023-05-16T06:21:00.923Z,94.78
2023-05-16T06:22:00.906Z,94.78
2023-05-16T06:23:00.916Z,94.92
2023-05-16T06:24:00.880Z,94.98
2023-05-16T06:25:00.906Z,94.98
2023-05-16T06:26:00.868Z,94.88
2023-05-16T06:27:00.830Z,95.03
2023-05-16T06:28:00.812Z,95.08
2023-05-16T06:29:00.800Z,95.18
2023-05-16T06:30:00.824Z,95.08
2023-05-16T06:31:00.834Z,94.98
2023-05-16T06:32:00.885Z,95.08
2023-05-16T06:33:00.763Z,95.59
2023-05-16T06:34:00.748Z,95.94
2023-05-16T06:35:00.737Z,96.25
2023-05-16T06:36:00.713Z,96.35
2023-05-16T06:37:00.696Z,96.35
2023-05-16T06:38:00.688Z,96.25
2023-05-16T06:39:00.694Z,96.45
2023-05-16T06:40:00.651Z,96.66
2023-05-16T06:41:00.640Z,96.35
2023-05-16T06:42:00.629Z,96.39
2023-05-16T06:43:00.609Z,96.50
2023-05-16T06:44:00.628Z,96.19
2023-05-16T06:45:00.584Z,96.09
2023-05-16T06:46:00.597Z,96.09
2023-05-16T06:47:00.738Z,96.19
2023-05-16T06:48:00.611Z,96.39
2023-05-16T06:49:00.563Z,96.39
2023-05-16T06:50:00.549Z,96.60
2023-05-16T06:51:00.509Z,96.19
2023-05-16T06:52:00.490Z,95.89
2023-05-16T06:53:00.497Z,96.14
2023-05-16T06:54:02.051Z,96.39
2023-05-16T06:55:00.514Z,96.39
2023-05-16T06:56:00.439Z,95.37
2023-05-16T06:57:00.503Z,94.66
2023-05-16T06:58:00.460Z,93.85
2023-05-16T06:59:00.425Z,93.64
2023-05-16T07:00:00.406Z,93.24
2023-05-16T07:01:00.412Z,93.85
2023-05-16T07:02:00.372Z,93.54
2023-05-16T07:03:00.584Z,93.33
2023-05-16T07:04:00.400Z,93.50
2023-05-16T07:05:00.320Z,92.89
2023-05-16T07:06:00.313Z,92.99
2023-05-16T07:07:00.314Z,93.09
2023-05-16T07:08:00.310Z,93.29
2023-05-16T07:09:00.278Z,93.25
2023-05-16T07:10:00.260Z,92.94
2023-05-16T07:11:00.371Z,92.94
2023-05-16T07:12:00.245Z,92.80
2023-05-16T07:13:00.219Z,92.60
2023-05-16T07:14:00.208Z,92.40
2023-05-16T07:15:00.189Z,91.99
2023-05-16T07:16:00.199Z,92.09
2023-05-16T07:17:00.293Z,92.09
2023-05-16T07:18:00.213Z,92.09
2023-05-16T07:19:00.242Z,91.94
2023-05-16T07:20:01.741Z,91.53
2023-05-16T07:21:00.124Z,91.53
2023-05-16T07:22:00.115Z,91.07
2023-05-16T07:23:00.109Z,91.01
2023-05-16T07:24:00.066Z,91.22
2023-05-16T07:25:00.061Z,91.42
2023-05-16T07:26:00.051Z,91.07
2023-05-16T07:27:00.062Z,90.97
2023-05-16T07:28:00.014Z,90.86
2023-05-16T07:28:59.997Z,90.56
2023-05-16T07:29:59.989Z,90.56
2023-05-16T07:30:59.983Z,90.46
2023-05-16T07:32:00.130Z,89.95
2023-05-16T07:32:59.981Z,89.75
2023-05-16T07:33:59.932Z,89.61
2023-05-16T07:34:59.933Z,89.30
2023-05-16T07:36:12.165Z,89.00
2023-05-16T07:36:59.896Z,88.75
2023-05-16T07:37:59.871Z,88.75
2023-05-16T07:38:59.862Z,88.34
2023-05-16T07:39:59.865Z,88.24
2023-05-16T07:40:59.836Z,87.93
2023-05-16T07:41:59.818Z,87.43
2023-05-16T07:42:59.835Z,87.43
2023-05-16T07:43:59.805Z,86.92
2023-05-16T07:44:59.806Z,87.43
2023-05-16T07:45:59.825Z,87.12
2023-05-16T07:46:59.848Z,87.02
2023-05-16T07:47:59.772Z,86.71
2023-05-16T07:48:59.735Z,86.31
2023-05-16T07:49:59.725Z,86.45
2023-05-16T07:50:59.748Z,86.31
2023-05-16T07:51:59.683Z,86.10
2023-05-16T07:52:59.672Z,85.80
2023-05-16T07:53:59.659Z,85.60
2023-05-16T07:54:59.660Z,85.35
2023-05-16T07:56:00.363Z,85.31
2023-05-16T07:56:59.624Z,84.80
2023-05-16T07:57:59.636Z,84.20
2023-05-16T07:58:59.679Z,83.34
2023-05-16T07:59:59.594Z,82.70
2023-05-16T08:00:59.562Z,82.09
2023-05-16T08:01:59.613Z,82.59
2023-05-16T08:02:59.633Z,81.68
2023-05-16T08:03:59.583Z,81.58
2023-05-16T08:04:59.544Z,81.07
2023-05-16T08:05:59.553Z,80.97
2023-05-16T08:06:59.486Z,80.87
2023-05-16T08:07:59.473Z,80.66
2023-05-16T08:08:59.475Z,80.87
2023-05-16T08:09:59.440Z,80.97
2023-05-16T08:10:59.438Z,80.87
2023-05-16T08:11:59.416Z,80.87
2023-05-16T08:12:59.408Z,81.52
2023-05-16T08:13:59.413Z,81.31
2023-05-16T08:14:59.412Z,81.01
2023-05-16T08:15:59.412Z,81.25
2023-05-16T08:16:59.354Z,81.31
2023-05-16T08:17:59.421Z,81.31
2023-05-16T08:18:59.410Z,81.62
2023-05-16T08:19:59.340Z,81.72
2023-05-16T08:20:59.304Z,81.45
2023-05-16T08:21:59.286Z,82.17
2023-05-16T08:22:59.287Z,82.61
2023-05-16T08:23:59.257Z,83.26
2023-05-16T08:24:59.357Z,83.76
2023-05-16T08:25:59.232Z,84.52
2023-05-16T08:26:59.222Z,84.86
2023-05-16T08:27:59.220Z,85.41
2023-05-16T08:28:59.199Z,86.06
2023-05-16T08:29:59.182Z,86.88
2023-05-16T08:30:59.231Z,87.23
2023-05-16T08:31:59.399Z,87.16
2023-05-16T08:32:59.174Z,87.26
2023-05-16T08:33:59.125Z,87.98
2023-05-16T08:34:59.113Z,87.77
2023-05-16T08:35:59.102Z,88.22
2023-05-16T08:36:59.105Z,87.92
2023-05-16T08:37:59.071Z,88.37
2023-05-16T08:38:59.058Z,88.57
2023-05-16T08:39:59.045Z,88.57
2023-05-16T08:40:59.046Z,88.47
2023-05-16T08:41:59.055Z,88.02
2023-05-16T08:42:59.028Z,88.06
2023-05-16T08:43:58.991Z,88.02
2023-05-16T08:44:58.981Z,87.41
2023-05-16T08:45:58.980Z,86.80
2023-05-16T08:46:59.163Z,86.80
2023-05-16T08:47:58.991Z,86.59
2023-05-16T08:48:58.936Z,86.24
2023-05-16T08:49:58.923Z,85.84
2023-05-16T08:50:58.918Z,84.72
2023-05-16T08:51:58.904Z,83.90
2023-05-16T08:52:58.892Z,83.80
2023-05-16T08:53:58.858Z,83.80
2023-05-16T08:55:58.852Z,83.80
2023-05-16T08:56:58.821Z,83.59
2023-05-16T08:57:58.803Z,83.09
2023-05-16T08:58:58.791Z,83.39
2023-05-16T08:59:59.415Z,83.18
2023-05-16T09:00:58.811Z,83.15
2023-05-16T09:01:58.753Z,83.09
2023-05-16T09:02:58.957Z,82.88
2023-05-16T09:03:58.765Z,82.43
2023-05-16T09:04:58.726Z,82.13
2023-05-16T09:05:58.709Z,82.13
2023-05-16T09:06:58.683Z,81.93
2023-05-16T09:07:58.673Z,81.88
2023-05-16T09:08:58.656Z,80.87
2023-05-16T09:09:58.671Z,81.07
2023-05-16T09:10:58.632Z,80.66
2023-05-16T09:11:58.641Z,80.97
2023-05-16T09:12:58.607Z,80.73
2023-05-16T09:13:58.596Z,80.22
2023-05-16T09:14:58.602Z,79.41
2023-05-16T09:15:58.568Z,79.50
2023-05-16T09:16:58.581Z,79.47
2023-05-16T09:17:58.631Z,79.77
2023-05-16T09:18:58.668Z,78.62
2023-05-16T09:19:58.565Z,78.41
2023-05-16T09:20:58.497Z,78.48
2023-05-16T09:21:58.490Z,77.73
2023-05-16T09:22:58.491Z,77.22
2023-05-16T09:23:58.459Z,76.68
2023-05-16T09:24:58.459Z,76.68
2023-05-16T09:25:58.440Z,75.93
2023-05-16T09:26:58.421Z,75.59
2023-05-16T09:27:58.473Z,75.42
2023-05-16T09:28:58.405Z,74.07
2023-05-16T09:29:58.399Z,72.85
2023-05-16T09:30:58.472Z,72.75
2023-05-16T09:31:58.353Z,72.34
2023-05-16T09:32:58.360Z,72.34
2023-05-16T09:33:58.348Z,72.85
2023-05-16T09:34:58.453Z,72.55
2023-05-16T09:35:58.308Z,72.01
2023-05-16T09:36:58.286Z,71.77
2023-05-16T09:37:58.297Z,71.77
2023-05-16T09:38:58.275Z,70.96
2023-05-16T09:39:58.256Z,71.16
2023-05-16T09:40:58.236Z,70.76
2023-05-16T09:41:58.224Z,71.00
2023-05-16T09:42:58.209Z,71.00
2023-05-16T09:43:58.218Z,71.40
2023-05-16T09:44:58.191Z,71.50
2023-05-16T09:45:58.175Z,71.33
2023-05-16T09:46:58.299Z,71.40
2023-05-16T09:47:58.284Z,71.80
2023-05-16T09:48:58.146Z,71.40
2023-05-16T09:49:58.137Z,71.40
2023-05-16T09:51:02.260Z,69.54
2023-05-16T09:51:58.096Z,69.54
2023-05-16T09:52:58.099Z,69.24
2023-05-16T09:53:58.066Z,68.60
2023-05-16T09:54:58.050Z,69.18
2023-05-16T09:55:58.040Z,67.83
2023-05-16T09:56:58.051Z,67.25
2023-05-16T09:57:58.031Z,66.27
2023-05-16T09:58:58.003Z,66.47
2023-05-16T09:59:57.985Z,67.25
2023-05-16T10:00:57.973Z,66.55
2023-05-16T10:01:58.038Z,66.72
2023-05-16T10:02:58.053Z,66.61
2023-05-16T10:03:58.085Z,66.28
2023-05-16T10:04:57.918Z,65.37
2023-05-16T10:05:57.904Z,64.97
2023-05-16T10:06:57.964Z,65.50
2023-05-16T10:07:57.887Z,65.73
2023-05-16T10:08:57.868Z,66.58
2023-05-16T10:09:57.865Z,67.18
2023-05-16T10:10:57.885Z,67.46
2023-05-16T10:11:57.841Z,67.35
2023-05-16T10:12:57.806Z,67.05
2023-05-16T10:13:57.792Z,67.05
2023-05-16T10:14:57.780Z,67.52
2023-05-16T10:15:57.849Z,67.62
2023-05-16T10:16:57.847Z,67.72
2023-05-16T10:17:57.747Z,68.02
2023-05-16T10:18:57.766Z,67.89
2023-05-16T10:19:57.714Z,67.69
2023-05-16T10:20:57.713Z,67.08
2023-05-16T10:21:57.686Z,67.49
2023-05-16T10:22:57.732Z,68.13
2023-05-16T10:23:57.660Z,67.62
2023-05-16T10:24:57.661Z,67.08
2023-05-16T10:25:57.643Z,66.67
2023-05-16T10:26:57.616Z,66.47
2023-05-16T10:27:57.606Z,67.42
2023-05-16T10:28:57.603Z,67.08
2023-05-16T10:29:57.594Z,66.95
2023-05-16T10:30:57.560Z,66.92
2023-05-16T10:31:57.615Z,65.98
2023-05-16T10:32:57.582Z,64.90
2023-05-16T10:33:57.531Z,63.53
2023-05-16T10:34:57.522Z,62.40
2023-05-16T10:35:57.496Z,62.24
2023-05-16T10:36:57.487Z,61.60
2023-05-16T10:37:57.476Z,61.47
2023-05-16T10:38:57.498Z,60.41
2023-05-16T10:39:57.453Z,58.97
2023-05-16T10:40:57.430Z,58.07
2023-05-16T10:41:57.416Z,58.29
2023-05-16T10:42:57.397Z,57.67
2023-05-16T10:43:57.384Z,58.37
2023-05-16T10:45:05.073Z,58.24
2023-05-16T10:45:57.421Z,58.24
2023-05-16T10:46:57.374Z,56.41
2023-05-16T10:47:57.359Z,56.34
2023-05-16T10:48:58.719Z,56.61
2023-05-16T10:49:57.319Z,54.47
2023-05-16T10:50:57.290Z,52.19
2023-05-16T10:51:57.282Z,51.67
2023-05-16T10:52:57.260Z,51.29
2023-05-16T10:53:57.272Z,52.82
2023-05-16T10:54:57.407Z,54.52
2023-05-16T10:55:57.235Z,54.07
2023-05-16T10:56:57.237Z,52.77
2023-05-16T10:57:57.211Z,53.69
2023-05-16T10:58:57.201Z,53.37
2023-05-16T10:59:58.403Z,52.77
2023-05-16T11:00:57.213Z,54.60
2023-05-16T11:01:57.611Z,53.24
2023-05-16T11:02:57.274Z,51.22
2023-05-16T11:03:57.317Z,51.54
2023-05-16T11:04:57.108Z,52.27
2023-05-16T11:05:57.093Z,52.34
2023-05-16T11:06:57.109Z,54.13
2023-05-16T11:07:57.066Z,54.63
2023-05-16T11:08:57.068Z,54.83
2023-05-16T11:09:57.041Z,54.75
2023-05-16T11:10:57.052Z,55.41
2023-05-16T11:11:57.029Z,56.74
2023-05-16T11:12:57.050Z,57.04
2023-05-16T11:13:57.011Z,56.41
2023-05-16T11:14:56.979Z,55.96
2023-05-16T11:15:56.998Z,56.59
2023-05-16T11:16:57.081Z,56.99
2023-05-16T11:17:57.003Z,57.32
2023-05-16T11:18:56.958Z,57.55
2023-05-16T11:19:56.912Z,57.95
2023-05-16T11:20:56.894Z,57.35
2023-05-16T11:21:56.904Z,57.48
2023-05-16T11:22:56.895Z,56.49
2023-05-16T11:23:56.903Z,55.83
2023-05-16T11:24:56.842Z,54.45
2023-05-16T11:25:56.835Z,53.19
2023-05-16T11:26:56.885Z,53.59
2023-05-16T11:27:56.821Z,52.09
2023-05-16T11:28:56.785Z,50.89
2023-05-16T11:29:56.784Z,50.76
2023-05-16T11:30:56.840Z,49.91
2023-05-16T11:31:56.921Z,49.46
2023-05-16T11:32:56.791Z,49.34
2023-05-16T11:33:56.725Z,48.90
2023-05-16T11:34:56.706Z,49.32
2023-05-16T11:36:11.160Z,49.62
2023-05-16T11:36:56.714Z,49.34
2023-05-16T11:37:56.675Z,50.19
2023-05-16T11:38:56.673Z,51.87
2023-05-16T11:39:56.690Z,53.47
2023-05-16T11:40:56.636Z,54.91
2023-05-16T11:41:56.653Z,55.71
2023-05-16T11:42:56.645Z,55.87
2023-05-16T11:43:56.622Z,56.07
2023-05-16T11:44:56.581Z,55.89
2023-05-16T11:45:56.570Z,55.36
2023-05-16T11:46:56.740Z,55.56
2023-05-16T11:47:56.583Z,55.36
2023-05-16T11:48:56.544Z,55.13
2023-05-16T11:49:56.513Z,54.73
2023-05-16T11:50:56.512Z,55.06
2023-05-16T11:51:56.503Z,55.69
2023-05-16T11:52:56.476Z,57.05
2023-05-16T11:53:56.463Z,57.98
2023-05-16T11:54:56.445Z,58.19
2023-05-16T11:55:56.892Z,57.78
2023-05-16T11:56:56.419Z,55.82
2023-05-16T11:57:56.410Z,55.16
2023-05-16T11:58:56.490Z,53.65
2023-05-16T11:59:56.387Z,52.55
2023-05-16T12:00:56.382Z,51.59
2023-05-16T12:01:56.357Z,51.19
2023-05-16T12:02:56.386Z,51.74
2023-05-16T12:03:56.452Z,52.39
2023-05-16T12:04:56.387Z,53.12
2023-05-16T12:05:56.351Z,53.42
2023-05-16T12:06:56.291Z,53.92
2023-05-16T12:07:56.289Z,53.38
2023-05-16T12:08:56.266Z,54.56
2023-05-16T12:09:56.269Z,55.77
2023-05-16T12:10:56.266Z,55.59
2023-05-16T12:11:56.228Z,55.39
2023-05-16T12:12:56.218Z,55.57
2023-05-16T12:13:56.900Z,55.77
2023-05-16T12:14:56.405Z,55.44
2023-05-16T12:15:56.175Z,55.46
2023-05-16T12:16:56.183Z,54.56
2023-05-16T12:17:56.182Z,55.09
2023-05-16T12:18:56.157Z,56.30
2023-05-16T12:19:56.133Z,54.91
2023-05-16T12:20:56.105Z,55.41
2023-05-16T12:21:56.096Z,55.29
2023-05-16T12:22:56.111Z,55.41
2023-05-16T12:23:56.083Z,55.04
2023-05-16T12:24:56.071Z,55.62
2023-05-16T12:25:56.046Z,54.89
2023-05-16T12:26:56.041Z,54.56
2023-05-16T12:27:56.016Z,54.48
2023-05-16T12:28:56.093Z,54.05
2023-05-16T12:29:56.003Z,54.56
2023-05-16T12:30:56.149Z,54.46
2023-05-16T12:31:55.998Z,53.78
2023-05-16T12:32:56.069Z,54.38
2023-05-16T12:33:55.954Z,53.34
2023-05-16T12:34:55.921Z,53.52
2023-05-16T12:35:55.911Z,53.38
2023-05-16T12:36:55.898Z,52.54
2023-05-16T12:37:55.883Z,51.14
2023-05-16T12:38:55.885Z,50.91
2023-05-16T12:39:55.869Z,50.58
2023-05-16T12:40:55.841Z,49.85
2023-05-16T12:41:55.835Z,47.73
2023-05-16T12:42:55.818Z,45.96
2023-05-16T12:43:55.816Z,44.57
2023-05-16T12:44:55.789Z,42.93
2023-05-16T12:45:55.816Z,41.09
2023-05-16T12:46:55.990Z,41.50
2023-05-16T12:47:55.818Z,41.88
2023-05-16T12:48:55.763Z,41.83
2023-05-16T12:49:55.726Z,41.16
2023-05-16T12:50:55.707Z,40.36
2023-05-16T12:51:55.702Z,39.94
2023-05-16T12:52:55.706Z,39.74